sensor_id;sensor_type;location;lat;lon;timestamp;P1;durP1;ratioP1;P2;durP2;ratioP2
3781;SDS011;6881;49.962;7.718;2023-12-07T00:02:09;13.30;;;9.27;;
3781;SDS011;6881;49.962;7.718;2023-12-07T00:04:34;17.10;;;9.50;;
3781;SDS011;6881;49.962;7.718;2023-12-07T00:06:59;23.27;;;10.83;;
3781;SDS011;6881;49.962;7.718;2023-12-07T00:09:25;15.27;;;9.27;;
3781;SDS011;6881;49.962;7.718;2023-12-07T00:11:50;16.27;;;10.10;;
3781;SDS011;6881;49.962;7.718;2023-12-07T00:14:16;18.77;;;10.20;;
3781;SDS011;6881;49.962;7.718;2023-12-07T00:16:42;13.70;;;7.90;;
3781;SDS011;6881;49.962;7.718;2023-12-07T00:19:08;12.70;;;8.67;;
3781;SDS011;6881;49.962;7.718;2023-12-07T00:21:33;15.80;;;10.17;;
3781;SDS011;6881;49.962;7.718;2023-12-07T00:23:58;18.50;;;9.27;;
3781;SDS011;6881;49.962;7.718;2023-12-07T00:26:24;15.53;;;9.00;;
3781;SDS011;6881;49.962;7.718;2023-12-07T00:28:49;13.80;;;8.57;;
3781;SDS011;6881;49.962;7.718;2023-12-07T00:31:15;10.67;;;7.20;;
3781;SDS011;6881;49.962;7.718;2023-12-07T00:33:40;13.93;;;7.87;;
3781;SDS011;6881;49.962;7.718;2023-12-07T00:36:05;19.00;;;8.80;;
3781;SDS011;6881;49.962;7.718;2023-12-07T00:38:31;14.60;;;9.03;;
3781;SDS011;6881;49.962;7.718;2023-12-07T00:40:57;13.10;;;8.63;;
3781;SDS011;6881;49.962;7.718;2023-12-07T00:43:22;12.33;;;9.47;;
3781;SDS011;6881;49.962;7.718;2023-12-07T00:45:48;14.07;;;9.00;;
3781;SDS011;6881;49.962;7.718;2023-12-07T00:48:13;15.80;;;8.80;;
3781;SDS011;6881;49.962;7.718;2023-12-07T00:50:38;15.00;;;8.53;;
3781;SDS011;6881;49.962;7.718;2023-12-07T00:53:04;15.40;;;8.80;;
3781;SDS011;6881;49.962;7.718;2023-12-07T00:55:29;14.20;;;8.63;;
3781;SDS011;6881;49.962;7.718;2023-12-07T00:57:54;19.23;;;10.27;;
3781;SDS011;6881;49.962;7.718;2023-12-07T01:00:20;12.30;;;9.50;;
3781;SDS011;6881;49.962;7.718;2023-12-07T01:02:45;17.70;;;10.70;;
3781;SDS011;6881;49.962;7.718;2023-12-07T01:05:11;15.77;;;10.63;;
3781;SDS011;6881;49.962;7.718;2023-12-07T01:07:37;16.73;;;9.73;;
3781;SDS011;6881;49.962;7.718;2023-12-07T01:10:02;12.33;;;8.83;;
3781;SDS011;6881;49.962;7.718;2023-12-07T01:12:28;17.83;;;10.13;;
3781;SDS011;6881;49.962;7.718;2023-12-07T01:14:53;17.20;;;10.83;;
3781;SDS011;6881;49.962;7.718;2023-12-07T01:17:18;22.33;;;10.50;;
3781;SDS011;6881;49.962;7.718;2023-12-07T01:19:44;15.57;;;11.40;;
3781;SDS011;6881;49.962;7.718;2023-12-07T01:22:09;17.43;;;9.80;;
3781;SDS011;6881;49.962;7.718;2023-12-07T01:24:35;14.47;;;10.40;;
3781;SDS011;6881;49.962;7.718;2023-12-07T01:27:00;20.13;;;9.80;;
3781;SDS011;6881;49.962;7.718;2023-12-07T01:29:26;18.27;;;11.20;;
3781;SDS011;6881;49.962;7.718;2023-12-07T01:31:51;17.77;;;9.60;;
3781;SDS011;6881;49.962;7.718;2023-12-07T01:34:17;19.87;;;9.40;;
3781;SDS011;6881;49.962;7.718;2023-12-07T01:36:43;17.53;;;10.00;;
3781;SDS011;6881;49.962;7.718;2023-12-07T01:39:09;16.10;;;9.60;;
3781;SDS011;6881;49.962;7.718;2023-12-07T01:41:37;17.00;;;10.53;;
3781;SDS011;6881;49.962;7.718;2023-12-07T01:44:03;17.50;;;10.47;;
3781;SDS011;6881;49.962;7.718;2023-12-07T01:46:28;19.77;;;12.17;;
3781;SDS011;6881;49.962;7.718;2023-12-07T01:48:54;18.60;;;11.03;;
3781;SDS011;6881;49.962;7.718;2023-12-07T01:51:19;19.10;;;11.20;;
3781;SDS011;6881;49.962;7.718;2023-12-07T01:53:45;18.80;;;12.00;;
3781;SDS011;6881;49.962;7.718;2023-12-07T01:56:11;26.77;;;10.30;;
3781;SDS011;6881;49.962;7.718;2023-12-07T01:58:37;21.80;;;10.50;;
3781;SDS011;6881;49.962;7.718;2023-12-07T02:01:02;21.03;;;10.60;;
3781;SDS011;6881;49.962;7.718;2023-12-07T02:03:29;14.70;;;9.50;;
3781;SDS011;6881;49.962;7.718;2023-12-07T02:05:55;24.80;;;12.70;;
3781;SDS011;6881;49.962;7.718;2023-12-07T02:08:21;21.87;;;11.70;;
3781;SDS011;6881;49.962;7.718;2023-12-07T02:10:46;20.27;;;12.50;;
3781;SDS011;6881;49.962;7.718;2023-12-07T02:13:11;17.67;;;12.10;;
3781;SDS011;6881;49.962;7.718;2023-12-07T02:15:37;19.70;;;12.07;;
3781;SDS011;6881;49.962;7.718;2023-12-07T02:20:44;18.30;;;10.13;;
3781;SDS011;6881;49.962;7.718;2023-12-07T02:23:14;14.73;;;9.13;;
3781;SDS011;6881;49.962;7.718;2023-12-07T02:28:14;14.80;;;9.87;;
3781;SDS011;6881;49.962;7.718;2023-12-07T02:30:39;13.50;;;8.80;;
3781;SDS011;6881;49.962;7.718;2023-12-07T02:33:04;14.47;;;9.10;;
3781;SDS011;6881;49.962;7.718;2023-12-07T02:35:30;17.50;;;10.37;;
3781;SDS011;6881;49.962;7.718;2023-12-07T02:37:56;18.00;;;9.93;;
3781;SDS011;6881;49.962;7.718;2023-12-07T02:40:23;18.47;;;10.63;;
3781;SDS011;6881;49.962;7.718;2023-12-07T02:42:50;18.87;;;10.60;;
3781;SDS011;6881;49.962;7.718;2023-12-07T02:45:16;18.17;;;10.70;;
3781;SDS011;6881;49.962;7.718;2023-12-07T02:47:42;15.37;;;9.23;;
3781;SDS011;6881;49.962;7.718;2023-12-07T02:50:10;17.13;;;10.10;;
3781;SDS011;6881;49.962;7.718;2023-12-07T02:52:36;20.07;;;9.60;;
3781;SDS011;6881;49.962;7.718;2023-12-07T02:55:02;21.83;;;10.30;;
3781;SDS011;6881;49.962;7.718;2023-12-07T02:57:27;23.80;;;11.43;;
3781;SDS011;6881;49.962;7.718;2023-12-07T02:59:53;18.87;;;10.17;;
3781;SDS011;6881;49.962;7.718;2023-12-07T03:02:18;17.67;;;9.60;;
3781;SDS011;6881;49.962;7.718;2023-12-07T03:04:44;16.73;;;9.37;;
3781;SDS011;6881;49.962;7.718;2023-12-07T03:07:09;22.20;;;10.70;;
3781;SDS011;6881;49.962;7.718;2023-12-07T03:09:34;18.90;;;10.47;;
3781;SDS011;6881;49.962;7.718;2023-12-07T03:12:00;21.03;;;11.00;;
3781;SDS011;6881;49.962;7.718;2023-12-07T03:14:25;17.63;;;9.50;;
3781;SDS011;6881;49.962;7.718;2023-12-07T03:16:50;20.90;;;10.40;;
3781;SDS011;6881;49.962;7.718;2023-12-07T03:19:15;18.73;;;11.17;;
3781;SDS011;6881;49.962;7.718;2023-12-07T03:21:41;24.03;;;11.97;;
3781;SDS011;6881;49.962;7.718;2023-12-07T03:24:08;19.60;;;11.50;;
3781;SDS011;6881;49.962;7.718;2023-12-07T03:26:34;20.50;;;10.90;;
3781;SDS011;6881;49.962;7.718;2023-12-07T03:28:59;22.60;;;12.40;;
3781;SDS011;6881;49.962;7.718;2023-12-07T03:31:25;26.40;;;12.50;;
3781;SDS011;6881;49.962;7.718;2023-12-07T03:33:50;26.27;;;10.97;;
3781;SDS011;6881;49.962;7.718;2023-12-07T03:36:15;22.53;;;13.00;;
3781;SDS011;6881;49.962;7.718;2023-12-07T03:38:41;18.03;;;10.30;;
3781;SDS011;6881;49.962;7.718;2023-12-07T03:41:07;29.33;;;14.80;;
3781;SDS011;6881;49.962;7.718;2023-12-07T03:43:32;24.10;;;12.83;;
3781;SDS011;6881;49.962;7.718;2023-12-07T03:45:57;26.03;;;14.47;;
3781;SDS011;6881;49.962;7.718;2023-12-07T03:48:23;24.73;;;14.67;;
3781;SDS011;6881;49.962;7.718;2023-12-07T03:50:48;21.23;;;12.90;;
3781;SDS011;6881;49.962;7.718;2023-12-07T03:53:13;26.20;;;14.20;;
3781;SDS011;6881;49.962;7.718;2023-12-07T03:55:38;22.00;;;12.33;;
3781;SDS011;6881;49.962;7.718;2023-12-07T03:58:04;27.37;;;13.53;;
3781;SDS011;6881;49.962;7.718;2023-12-07T04:00:31;20.77;;;12.33;;
3781;SDS011;6881;49.962;7.718;2023-12-07T04:02:57;23.10;;;12.03;;
3781;SDS011;6881;49.962;7.718;2023-12-07T04:05:22;24.93;;;12.93;;
3781;SDS011;6881;49.962;7.718;2023-12-07T04:07:48;20.13;;;11.13;;
3781;SDS011;6881;49.962;7.718;2023-12-07T04:10:13;21.50;;;12.33;;
3781;SDS011;6881;49.962;7.718;2023-12-07T04:12:38;19.67;;;11.60;;
3781;SDS011;6881;49.962;7.718;2023-12-07T04:15:04;20.10;;;11.40;;
3781;SDS011;6881;49.962;7.718;2023-12-07T04:17:29;19.13;;;11.43;;
3781;SDS011;6881;49.962;7.718;2023-12-07T04:19:55;22.53;;;12.10;;
3781;SDS011;6881;49.962;7.718;2023-12-07T04:22:20;20.70;;;11.70;;
3781;SDS011;6881;49.962;7.718;2023-12-07T04:24:45;17.97;;;9.57;;
3781;SDS011;6881;49.962;7.718;2023-12-07T04:27:10;19.90;;;11.23;;
3781;SDS011;6881;49.962;7.718;2023-12-07T04:29:36;21.40;;;10.83;;
3781;SDS011;6881;49.962;7.718;2023-12-07T04:32:01;19.23;;;11.00;;
3781;SDS011;6881;49.962;7.718;2023-12-07T04:34:27;22.13;;;9.80;;
3781;SDS011;6881;49.962;7.718;2023-12-07T04:36:52;14.40;;;9.63;;
3781;SDS011;6881;49.962;7.718;2023-12-07T04:39:18;21.40;;;11.47;;
3781;SDS011;6881;49.962;7.718;2023-12-07T04:41:43;17.27;;;11.13;;
3781;SDS011;6881;49.962;7.718;2023-12-07T04:44:08;12.40;;;9.13;;
3781;SDS011;6881;49.962;7.718;2023-12-07T04:46:33;17.80;;;9.63;;
3781;SDS011;6881;49.962;7.718;2023-12-07T04:49:00;17.20;;;10.00;;
3781;SDS011;6881;49.962;7.718;2023-12-07T04:51:25;21.83;;;9.80;;
3781;SDS011;6881;49.962;7.718;2023-12-07T04:53:51;22.33;;;10.67;;
3781;SDS011;6881;49.962;7.718;2023-12-07T04:56:16;15.07;;;9.20;;
3781;SDS011;6881;49.962;7.718;2023-12-07T04:58:41;17.27;;;10.27;;
3781;SDS011;6881;49.962;7.718;2023-12-07T05:01:07;15.10;;;8.50;;
3781;SDS011;6881;49.962;7.718;2023-12-07T05:03:32;19.50;;;8.30;;
3781;SDS011;6881;49.962;7.718;2023-12-07T05:05:57;23.67;;;12.03;;
3781;SDS011;6881;49.962;7.718;2023-12-07T05:08:23;14.53;;;9.17;;
3781;SDS011;6881;49.962;7.718;2023-12-07T05:10:48;15.53;;;10.40;;
3781;SDS011;6881;49.962;7.718;2023-12-07T05:13:13;13.67;;;9.37;;
3781;SDS011;6881;49.962;7.718;2023-12-07T05:15:39;19.53;;;9.67;;
3781;SDS011;6881;49.962;7.718;2023-12-07T05:18:04;15.87;;;9.40;;
3781;SDS011;6881;49.962;7.718;2023-12-07T05:20:29;14.17;;;8.83;;
3781;SDS011;6881;49.962;7.718;2023-12-07T05:22:55;20.20;;;10.73;;
3781;SDS011;6881;49.962;7.718;2023-12-07T05:25:21;13.40;;;8.87;;
3781;SDS011;6881;49.962;7.718;2023-12-07T05:27:46;22.63;;;14.13;;
3781;SDS011;6881;49.962;7.718;2023-12-07T05:30:11;28.90;;;18.80;;
3781;SDS011;6881;49.962;7.718;2023-12-07T05:32:38;25.80;;;16.93;;
3781;SDS011;6881;49.962;7.718;2023-12-07T05:35:03;26.40;;;14.60;;
3781;SDS011;6881;49.962;7.718;2023-12-07T05:37:29;31.70;;;17.90;;
3781;SDS011;6881;49.962;7.718;2023-12-07T05:39:54;29.87;;;17.00;;
3781;SDS011;6881;49.962;7.718;2023-12-07T05:42:19;20.93;;;13.80;;
3781;SDS011;6881;49.962;7.718;2023-12-07T05:44:45;20.10;;;13.30;;
3781;SDS011;6881;49.962;7.718;2023-12-07T05:47:10;28.00;;;18.07;;
3781;SDS011;6881;49.962;7.718;2023-12-07T05:49:36;19.20;;;14.33;;
3781;SDS011;6881;49.962;7.718;2023-12-07T05:52:01;32.10;;;17.77;;
3781;SDS011;6881;49.962;7.718;2023-12-07T05:54:27;31.83;;;18.07;;
3781;SDS011;6881;49.962;7.718;2023-12-07T05:56:53;31.67;;;17.23;;
3781;SDS011;6881;49.962;7.718;2023-12-07T05:59:18;23.37;;;16.33;;
3781;SDS011;6881;49.962;7.718;2023-12-07T06:01:43;23.23;;;15.57;;
3781;SDS011;6881;49.962;7.718;2023-12-07T06:04:09;24.63;;;14.30;;
3781;SDS011;6881;49.962;7.718;2023-12-07T06:06:35;20.70;;;11.53;;
3781;SDS011;6881;49.962;7.718;2023-12-07T06:09:00;13.23;;;10.37;;
3781;SDS011;6881;49.962;7.718;2023-12-07T06:11:26;22.87;;;13.73;;
3781;SDS011;6881;49.962;7.718;2023-12-07T06:13:51;25.57;;;10.87;;
3781;SDS011;6881;49.962;7.718;2023-12-07T06:16:16;22.17;;;11.20;;
3781;SDS011;6881;49.962;7.718;2023-12-07T06:18:43;14.90;;;10.10;;
3781;SDS011;6881;49.962;7.718;2023-12-07T06:21:09;14.10;;;9.57;;
3781;SDS011;6881;49.962;7.718;2023-12-07T06:23:34;15.20;;;9.30;;
3781;SDS011;6881;49.962;7.718;2023-12-07T06:26:00;21.50;;;12.43;;
3781;SDS011;6881;49.962;7.718;2023-12-07T06:28:27;18.20;;;10.83;;
3781;SDS011;6881;49.962;7.718;2023-12-07T06:30:52;19.90;;;11.00;;
3781;SDS011;6881;49.962;7.718;2023-12-07T06:33:17;25.63;;;14.07;;
3781;SDS011;6881;49.962;7.718;2023-12-07T06:35:43;36.30;;;17.87;;
3781;SDS011;6881;49.962;7.718;2023-12-07T06:38:08;54.13;;;23.10;;
3781;SDS011;6881;49.962;7.718;2023-12-07T06:40:33;41.40;;;20.63;;
3781;SDS011;6881;49.962;7.718;2023-12-07T06:42:59;35.03;;;17.73;;
3781;SDS011;6881;49.962;7.718;2023-12-07T06:45:24;34.87;;;18.20;;
3781;SDS011;6881;49.962;7.718;2023-12-07T06:47:49;35.33;;;18.00;;
3781;SDS011;6881;49.962;7.718;2023-12-07T06:50:15;28.37;;;15.70;;
3781;SDS011;6881;49.962;7.718;2023-12-07T06:52:40;29.67;;;15.47;;
3781;SDS011;6881;49.962;7.718;2023-12-07T06:55:06;24.13;;;12.00;;
3781;SDS011;6881;49.962;7.718;2023-12-07T06:57:34;14.73;;;9.30;;
3781;SDS011;6881;49.962;7.718;2023-12-07T06:59:59;15.20;;;10.57;;
3781;SDS011;6881;49.962;7.718;2023-12-07T07:02:26;23.43;;;12.83;;
3781;SDS011;6881;49.962;7.718;2023-12-07T07:04:51;27.00;;;14.27;;
3781;SDS011;6881;49.962;7.718;2023-12-07T07:07:17;29.97;;;16.10;;
3781;SDS011;6881;49.962;7.718;2023-12-07T07:09:42;29.37;;;18.20;;
3781;SDS011;6881;49.962;7.718;2023-12-07T07:12:07;30.00;;;16.47;;
3781;SDS011;6881;49.962;7.718;2023-12-07T07:14:33;18.57;;;12.83;;
3781;SDS011;6881;49.962;7.718;2023-12-07T07:16:59;21.33;;;12.17;;
3781;SDS011;6881;49.962;7.718;2023-12-07T07:19:24;22.60;;;14.70;;
3781;SDS011;6881;49.962;7.718;2023-12-07T07:21:50;22.20;;;12.40;;
3781;SDS011;6881;49.962;7.718;2023-12-07T07:24:15;29.33;;;18.47;;
3781;SDS011;6881;49.962;7.718;2023-12-07T07:26:41;43.20;;;23.23;;
3781;SDS011;6881;49.962;7.718;2023-12-07T07:29:06;43.37;;;26.13;;
3781;SDS011;6881;49.962;7.718;2023-12-07T07:31:32;50.77;;;22.10;;
3781;SDS011;6881;49.962;7.718;2023-12-07T07:33:57;32.27;;;20.10;;
3781;SDS011;6881;49.962;7.718;2023-12-07T07:36:22;25.73;;;16.07;;
3781;SDS011;6881;49.962;7.718;2023-12-07T07:38:47;23.30;;;14.97;;
3781;SDS011;6881;49.962;7.718;2023-12-07T07:41:13;39.40;;;21.10;;
3781;SDS011;6881;49.962;7.718;2023-12-07T07:43:39;36.27;;;19.10;;
3781;SDS011;6881;49.962;7.718;2023-12-07T07:46:04;33.27;;;20.57;;
3781;SDS011;6881;49.962;7.718;2023-12-07T07:48:30;34.10;;;19.40;;
3781;SDS011;6881;49.962;7.718;2023-12-07T07:50:55;34.40;;;18.80;;
3781;SDS011;6881;49.962;7.718;2023-12-07T07:53:21;31.63;;;17.97;;
3781;SDS011;6881;49.962;7.718;2023-12-07T07:55:46;27.43;;;16.53;;
3781;SDS011;6881;49.962;7.718;2023-12-07T07:58:11;32.53;;;20.60;;
3781;SDS011;6881;49.962;7.718;2023-12-07T08:00:37;33.17;;;19.97;;
3781;SDS011;6881;49.962;7.718;2023-12-07T08:03:02;37.53;;;20.20;;
3781;SDS011;6881;49.962;7.718;2023-12-07T08:05:28;35.60;;;22.20;;
3781;SDS011;6881;49.962;7.718;2023-12-07T08:07:53;38.50;;;22.83;;
3781;SDS011;6881;49.962;7.718;2023-12-07T08:10:19;38.73;;;23.37;;
3781;SDS011;6881;49.962;7.718;2023-12-07T08:12:45;26.27;;;16.40;;
3781;SDS011;6881;49.962;7.718;2023-12-07T08:15:10;24.53;;;14.30;;
3781;SDS011;6881;49.962;7.718;2023-12-07T08:17:39;27.30;;;12.47;;
3781;SDS011;6881;49.962;7.718;2023-12-07T08:20:06;23.50;;;12.90;;
3781;SDS011;6881;49.962;7.718;2023-12-07T08:22:32;25.97;;;13.20;;
3781;SDS011;6881;49.962;7.718;2023-12-07T08:24:57;36.33;;;12.20;;
3781;SDS011;6881;49.962;7.718;2023-12-07T08:27:23;23.33;;;12.03;;
3781;SDS011;6881;49.962;7.718;2023-12-07T08:29:48;26.53;;;13.60;;
3781;SDS011;6881;49.962;7.718;2023-12-07T08:32:13;37.93;;;20.27;;
3781;SDS011;6881;49.962;7.718;2023-12-07T08:34:39;39.03;;;18.40;;
3781;SDS011;6881;49.962;7.718;2023-12-07T08:37:05;26.47;;;14.27;;
3781;SDS011;6881;49.962;7.718;2023-12-07T08:39:30;22.40;;;12.60;;
3781;SDS011;6881;49.962;7.718;2023-12-07T08:41:55;22.20;;;11.83;;
3781;SDS011;6881;49.962;7.718;2023-12-07T08:44:20;19.90;;;12.53;;
3781;SDS011;6881;49.962;7.718;2023-12-07T08:46:46;21.57;;;12.03;;
3781;SDS011;6881;49.962;7.718;2023-12-07T08:49:11;21.37;;;11.23;;
3781;SDS011;6881;49.962;7.718;2023-12-07T08:51:36;16.90;;;10.63;;
3781;SDS011;6881;49.962;7.718;2023-12-07T08:54:02;16.03;;;11.30;;
3781;SDS011;6881;49.962;7.718;2023-12-07T08:56:27;16.37;;;9.83;;
3781;SDS011;6881;49.962;7.718;2023-12-07T08:58:52;27.07;;;14.67;;
3781;SDS011;6881;49.962;7.718;2023-12-07T09:01:18;27.67;;;14.10;;
3781;SDS011;6881;49.962;7.718;2023-12-07T09:03:43;25.33;;;15.00;;
3781;SDS011;6881;49.962;7.718;2023-12-07T09:06:08;29.10;;;13.93;;
3781;SDS011;6881;49.962;7.718;2023-12-07T09:08:34;17.97;;;11.40;;
3781;SDS011;6881;49.962;7.718;2023-12-07T09:10:59;30.60;;;15.33;;
3781;SDS011;6881;49.962;7.718;2023-12-07T09:13:24;18.17;;;10.00;;
3781;SDS011;6881;49.962;7.718;2023-12-07T09:15:50;20.90;;;11.60;;
3781;SDS011;6881;49.962;7.718;2023-12-07T09:18:15;23.90;;;10.97;;
3781;SDS011;6881;49.962;7.718;2023-12-07T09:20:40;21.50;;;11.23;;
3781;SDS011;6881;49.962;7.718;2023-12-07T09:23:11;19.27;;;11.50;;
3781;SDS011;6881;49.962;7.718;2023-12-07T09:25:38;17.77;;;10.10;;
3781;SDS011;6881;49.962;7.718;2023-12-07T09:28:03;16.93;;;9.43;;
3781;SDS011;6881;49.962;7.718;2023-12-07T09:30:29;23.03;;;12.10;;
3781;SDS011;6881;49.962;7.718;2023-12-07T09:32:54;20.07;;;10.60;;
3781;SDS011;6881;49.962;7.718;2023-12-07T09:35:20;18.63;;;9.37;;
3781;SDS011;6881;49.962;7.718;2023-12-07T09:37:45;20.33;;;8.47;;
3781;SDS011;6881;49.962;7.718;2023-12-07T09:40:14;17.23;;;10.23;;
3781;SDS011;6881;49.962;7.718;2023-12-07T09:42:42;18.50;;;10.37;;
3781;SDS011;6881;49.962;7.718;2023-12-07T09:45:08;15.87;;;8.73;;
3781;SDS011;6881;49.962;7.718;2023-12-07T09:47:33;19.00;;;10.20;;
3781;SDS011;6881;49.962;7.718;2023-12-07T09:49:59;16.87;;;10.60;;
3781;SDS011;6881;49.962;7.718;2023-12-07T09:52:24;21.10;;;10.40;;
3781;SDS011;6881;49.962;7.718;2023-12-07T09:54:50;21.43;;;11.27;;
3781;SDS011;6881;49.962;7.718;2023-12-07T09:57:16;20.37;;;11.37;;
3781;SDS011;6881;49.962;7.718;2023-12-07T09:59:42;19.93;;;10.37;;
3781;SDS011;6881;49.962;7.718;2023-12-07T10:02:07;18.50;;;10.37;;
3781;SDS011;6881;49.962;7.718;2023-12-07T10:04:33;19.10;;;9.80;;
3781;SDS011;6881;49.962;7.718;2023-12-07T10:06:58;13.57;;;8.63;;
3781;SDS011;6881;49.962;7.718;2023-12-07T10:09:23;17.43;;;10.10;;
3781;SDS011;6881;49.962;7.718;2023-12-07T10:11:49;15.33;;;7.93;;
3781;SDS011;6881;49.962;7.718;2023-12-07T10:14:15;17.03;;;9.03;;
3781;SDS011;6881;49.962;7.718;2023-12-07T10:16:53;13.87;;;9.43;;
3781;SDS011;6881;49.962;7.718;2023-12-07T10:19:22;14.90;;;9.53;;
3781;SDS011;6881;49.962;7.718;2023-12-07T10:21:51;13.43;;;8.87;;
3781;SDS011;6881;49.962;7.718;2023-12-07T10:24:17;12.03;;;8.07;;
3781;SDS011;6881;49.962;7.718;2023-12-07T10:26:43;13.80;;;8.37;;
3781;SDS011;6881;49.962;7.718;2023-12-07T10:29:09;10.90;;;6.93;;
3781;SDS011;6881;49.962;7.718;2023-12-07T10:31:36;12.87;;;7.77;;
3781;SDS011;6881;49.962;7.718;2023-12-07T10:34:02;11.70;;;6.83;;
3781;SDS011;6881;49.962;7.718;2023-12-07T10:36:27;9.03;;;6.90;;
3781;SDS011;6881;49.962;7.718;2023-12-07T10:38:53;8.67;;;6.10;;
3781;SDS011;6881;49.962;7.718;2023-12-07T10:41:19;10.10;;;6.73;;
3781;SDS011;6881;49.962;7.718;2023-12-07T10:43:47;14.73;;;8.10;;
3781;SDS011;6881;49.962;7.718;2023-12-07T10:46:18;12.93;;;7.13;;
3781;SDS011;6881;49.962;7.718;2023-12-07T10:48:46;12.77;;;6.97;;
3781;SDS011;6881;49.962;7.718;2023-12-07T10:51:13;12.07;;;7.90;;
3781;SDS011;6881;49.962;7.718;2023-12-07T10:53:45;11.47;;;6.93;;
3781;SDS011;6881;49.962;7.718;2023-12-07T10:56:13;12.10;;;7.70;;
3781;SDS011;6881;49.962;7.718;2023-12-07T10:58:40;10.93;;;7.10;;
3781;SDS011;6881;49.962;7.718;2023-12-07T11:01:07;10.10;;;6.97;;
3781;SDS011;6881;49.962;7.718;2023-12-07T11:03:34;12.80;;;8.73;;
3781;SDS011;6881;49.962;7.718;2023-12-07T11:05:59;11.13;;;7.07;;
3781;SDS011;6881;49.962;7.718;2023-12-07T11:11:18;13.53;;;7.47;;
3781;SDS011;6881;49.962;7.718;2023-12-07T11:14:07;11.37;;;6.70;;
3781;SDS011;6881;49.962;7.718;2023-12-07T11:16:34;12.13;;;7.50;;
3781;SDS011;6881;49.962;7.718;2023-12-07T11:19:01;16.30;;;7.53;;
3781;SDS011;6881;49.962;7.718;2023-12-07T11:21:28;13.30;;;7.67;;
3781;SDS011;6881;49.962;7.718;2023-12-07T11:23:54;15.67;;;8.73;;
3781;SDS011;6881;49.962;7.718;2023-12-07T11:26:20;14.20;;;7.83;;
3781;SDS011;6881;49.962;7.718;2023-12-07T11:28:47;17.00;;;9.10;;
3781;SDS011;6881;49.962;7.718;2023-12-07T11:31:12;17.10;;;8.47;;
3781;SDS011;6881;49.962;7.718;2023-12-07T11:33:38;12.23;;;7.17;;
3781;SDS011;6881;49.962;7.718;2023-12-07T11:38:34;16.93;;;8.57;;
3781;SDS011;6881;49.962;7.718;2023-12-07T11:41:01;13.60;;;8.33;;
3781;SDS011;6881;49.962;7.718;2023-12-07T11:46:00;17.43;;;8.77;;
3781;SDS011;6881;49.962;7.718;2023-12-07T11:48:26;15.23;;;8.00;;
3781;SDS011;6881;49.962;7.718;2023-12-07T11:53:21;15.33;;;8.50;;
3781;SDS011;6881;49.962;7.718;2023-12-07T11:55:47;17.00;;;7.93;;
3781;SDS011;6881;49.962;7.718;2023-12-07T11:58:13;13.77;;;8.87;;
3781;SDS011;6881;49.962;7.718;2023-12-07T12:00:39;19.30;;;9.33;;
3781;SDS011;6881;49.962;7.718;2023-12-07T12:03:05;13.90;;;8.10;;
3781;SDS011;6881;49.962;7.718;2023-12-07T12:05:31;19.10;;;9.23;;
3781;SDS011;6881;49.962;7.718;2023-12-07T12:07:56;12.73;;;8.87;;
3781;SDS011;6881;49.962;7.718;2023-12-07T12:10:21;19.17;;;8.53;;
3781;SDS011;6881;49.962;7.718;2023-12-07T12:12:50;15.87;;;8.90;;
3781;SDS011;6881;49.962;7.718;2023-12-07T12:15:16;18.23;;;10.30;;
3781;SDS011;6881;49.962;7.718;2023-12-07T12:17:41;17.33;;;9.00;;
3781;SDS011;6881;49.962;7.718;2023-12-07T12:20:08;22.13;;;10.00;;
3781;SDS011;6881;49.962;7.718;2023-12-07T12:22:36;15.33;;;8.77;;
3781;SDS011;6881;49.962;7.718;2023-12-07T12:25:01;16.27;;;8.77;;
3781;SDS011;6881;49.962;7.718;2023-12-07T12:27:27;15.60;;;8.83;;
3781;SDS011;6881;49.962;7.718;2023-12-07T12:29:53;21.43;;;10.00;;
3781;SDS011;6881;49.962;7.718;2023-12-07T12:32:19;22.20;;;9.70;;
3781;SDS011;6881;49.962;7.718;2023-12-07T12:34:50;18.33;;;10.90;;
3781;SDS011;6881;49.962;7.718;2023-12-07T12:37:16;17.53;;;9.40;;
3781;SDS011;6881;49.962;7.718;2023-12-07T12:39:41;17.37;;;9.57;;
3781;SDS011;6881;49.962;7.718;2023-12-07T12:42:06;19.00;;;10.97;;
3781;SDS011;6881;49.962;7.718;2023-12-07T12:44:32;19.73;;;10.37;;
3781;SDS011;6881;49.962;7.718;2023-12-07T12:46:57;24.40;;;10.30;;
3781;SDS011;6881;49.962;7.718;2023-12-07T12:49:22;26.80;;;11.13;;
3781;SDS011;6881;49.962;7.718;2023-12-07T12:51:48;18.67;;;9.33;;
3781;SDS011;6881;49.962;7.718;2023-12-07T12:54:14;16.17;;;9.20;;
3781;SDS011;6881;49.962;7.718;2023-12-07T12:56:39;19.57;;;10.10;;
3781;SDS011;6881;49.962;7.718;2023-12-07T12:59:04;18.10;;;9.00;;
3781;SDS011;6881;49.962;7.718;2023-12-07T13:01:30;19.43;;;9.70;;
3781;SDS011;6881;49.962;7.718;2023-12-07T13:03:55;19.80;;;9.33;;
3781;SDS011;6881;49.962;7.718;2023-12-07T13:06:21;17.33;;;8.60;;
3781;SDS011;6881;49.962;7.718;2023-12-07T13:08:47;13.40;;;9.20;;
3781;SDS011;6881;49.962;7.718;2023-12-07T13:11:16;17.70;;;8.40;;
3781;SDS011;6881;49.962;7.718;2023-12-07T13:13:42;20.23;;;10.50;;
3781;SDS011;6881;49.962;7.718;2023-12-07T13:16:08;26.10;;;10.40;;
3781;SDS011;6881;49.962;7.718;2023-12-07T13:18:33;21.97;;;10.33;;
3781;SDS011;6881;49.962;7.718;2023-12-07T13:20:59;21.80;;;11.70;;
3781;SDS011;6881;49.962;7.718;2023-12-07T13:23:24;17.57;;;9.60;;
3781;SDS011;6881;49.962;7.718;2023-12-07T13:25:50;16.77;;;9.43;;
3781;SDS011;6881;49.962;7.718;2023-12-07T13:28:15;20.30;;;10.77;;
3781;SDS011;6881;49.962;7.718;2023-12-07T13:30:41;15.43;;;8.10;;
3781;SDS011;6881;49.962;7.718;2023-12-07T13:33:06;18.97;;;10.07;;
3781;SDS011;6881;49.962;7.718;2023-12-07T13:35:34;20.30;;;11.33;;
3781;SDS011;6881;49.962;7.718;2023-12-07T13:37:59;20.77;;;11.13;;
3781;SDS011;6881;49.962;7.718;2023-12-07T13:40:25;20.93;;;11.20;;
3781;SDS011;6881;49.962;7.718;2023-12-07T13:42:51;21.57;;;10.07;;
3781;SDS011;6881;49.962;7.718;2023-12-07T13:45:17;23.93;;;12.60;;
3781;SDS011;6881;49.962;7.718;2023-12-07T13:47:42;24.10;;;10.67;;
3781;SDS011;6881;49.962;7.718;2023-12-07T13:50:09;22.97;;;10.77;;
3781;SDS011;6881;49.962;7.718;2023-12-07T13:52:34;24.00;;;11.13;;
3781;SDS011;6881;49.962;7.718;2023-12-07T13:55:00;13.20;;;9.13;;
3781;SDS011;6881;49.962;7.718;2023-12-07T13:57:27;24.23;;;12.33;;
3781;SDS011;6881;49.962;7.718;2023-12-07T13:59:52;25.00;;;10.10;;
3781;SDS011;6881;49.962;7.718;2023-12-07T14:02:19;21.27;;;10.47;;
3781;SDS011;6881;49.962;7.718;2023-12-07T14:04:45;21.10;;;9.10;;
3781;SDS011;6881;49.962;7.718;2023-12-07T14:07:11;20.83;;;9.33;;
3781;SDS011;6881;49.962;7.718;2023-12-07T14:09:39;19.00;;;9.47;;
3781;SDS011;6881;49.962;7.718;2023-12-07T14:12:07;20.27;;;10.60;;
3781;SDS011;6881;49.962;7.718;2023-12-07T14:14:34;23.37;;;9.07;;
3781;SDS011;6881;49.962;7.718;2023-12-07T14:16:59;20.90;;;9.30;;
3781;SDS011;6881;49.962;7.718;2023-12-07T14:19:25;20.10;;;9.47;;
3781;SDS011;6881;49.962;7.718;2023-12-07T14:21:50;20.53;;;10.47;;
3781;SDS011;6881;49.962;7.718;2023-12-07T14:24:16;21.83;;;9.87;;
3781;SDS011;6881;49.962;7.718;2023-12-07T14:26:44;18.27;;;10.63;;
3781;SDS011;6881;49.962;7.718;2023-12-07T14:29:09;17.20;;;10.20;;
3781;SDS011;6881;49.962;7.718;2023-12-07T14:31:39;18.97;;;9.53;;
3781;SDS011;6881;49.962;7.718;2023-12-07T14:34:05;25.73;;;10.90;;
3781;SDS011;6881;49.962;7.718;2023-12-07T14:36:30;23.03;;;9.40;;
3781;SDS011;6881;49.962;7.718;2023-12-07T14:38:56;20.23;;;9.13;;
3781;SDS011;6881;49.962;7.718;2023-12-07T14:41:21;18.33;;;7.37;;
3781;SDS011;6881;49.962;7.718;2023-12-07T14:43:47;16.07;;;9.33;;
3781;SDS011;6881;49.962;7.718;2023-12-07T14:46:13;24.10;;;12.33;;
3781;SDS011;6881;49.962;7.718;2023-12-07T14:48:38;23.60;;;10.30;;
3781;SDS011;6881;49.962;7.718;2023-12-07T14:51:04;25.50;;;10.60;;
3781;SDS011;6881;49.962;7.718;2023-12-07T14:53:29;18.77;;;9.40;;
3781;SDS011;6881;49.962;7.718;2023-12-07T14:55:55;25.33;;;10.33;;
3781;SDS011;6881;49.962;7.718;2023-12-07T14:58:22;18.30;;;9.57;;
3781;SDS011;6881;49.962;7.718;2023-12-07T15:00:47;17.90;;;10.43;;